| time (UTC) | temp F | wind direction | speed MPH | gust MPH | rain 1hr in | rain 24hr in | rain mn in | humidity % | barometer mb |
| 20260906201538 | 89 | 281 | 3.0 | 10.0 | 0.00 | 0.00 | 0.00 | 50 | 1011.8 |
| 20260906200036 | 88 | 295 | 6.0 | 13.0 | 0.00 | 0.00 | 0.00 | 49 | 1011.9 |
| 20260906194538 | 89 | 226 | 7.0 | 16.0 | 0.00 | 0.00 | 0.00 | 49 | 1012.3 |
| 20260906193036 | 89 | 198 | 5.0 | 9.0 | 0.00 | 0.00 | 0.00 | 48 | 1012.8 |
| 20260906191540 | 87 | 233 | 5.0 | 9.0 | 0.00 | 0.00 | 0.00 | 52 | 1013.0 |
| 20260906184535 | 84 | 217 | 4.0 | 8.0 | 0.00 | 0.00 | 0.00 | 59 | 1013.4 |
| 20260906183045 | 81 | 172 | 3.0 | 7.0 | 0.00 | 0.00 | 0.00 | 66 | 1013.5 |
| 20260906181537 | 78 | 259 | 2.0 | 5.0 | 0.00 | 0.00 | 0.00 | 75 | 1013.9 |
| 20260906180036 | 75 | 176 | 2.0 | 4.0 | 0.00 | 0.00 | 0.00 | 79 | 1014.3 |
| 20260906174541 | 73 | 168 | 1.0 | 4.0 | 0.00 | 0.00 | 0.00 | 86 | 1014.5 |
| 20260906173036 | 72 | 274 | 0.0 | 3.0 | 0.00 | 0.00 | 0.00 | 87 | 1014.7 |
| 20260906171534 | 71 | 203 | 1.0 | 5.0 | 0.00 | 0.00 | 0.00 | 87 | 1015.3 |
| 20260906170034 | 70 | 88 | 2.0 | 6.0 | 0.00 | 0.00 | 0.00 | 89 | 1015.8 |
| 20260906164537 | 69 | 243 | 1.0 | 5.0 | 0.00 | 0.00 | 0.00 | 88 | 1016.4 |
| 20260906163035 | 70 | 135 | 4.0 | 12.0 | 0.00 | 0.00 | 0.00 | 87 | 1016.4 |
| 20260906161537 | 70 | 83 | 6.0 | 12.0 | 0.00 | 0.00 | 0.00 | 85 | 1017.7 |
| 20260906160032 | 71 | 115 | 7.0 | 14.0 | 0.00 | 0.00 | 0.00 | 83 | 1017.0 |
| 20260906154541 | 72 | 200 | 7.0 | 17.0 | 0.00 | 0.00 | 0.00 | 81 | 1015.9 |
| 20260906153035 | 71 | 161 | 5.0 | 16.0 | 0.00 | 0.00 | 0.00 | 84 | 1015.4 |
| 20260906151534 | 73 | 168 | 9.0 | 16.0 | 0.00 | 0.00 | 0.00 | 79 | 1015.3 |
| 20260906150041 | 75 | 236 | 8.0 | 16.0 | 0.00 | 0.00 | 0.00 | 75 | 1015.6 |
| 20260906144537 | 77 | 181 | 6.0 | 11.0 | 0.00 | 0.00 | 0.00 | 80 | 1015.2 |
| 20260906143035 | 76 | 163 | 1.0 | 3.0 | 0.00 | 0.00 | 0.00 | 81 | 1014.5 |
| 20260906141534 | 76 | 292 | 1.0 | 4.0 | 0.00 | 0.00 | 0.00 | 86 | 1013.9 |
| 20260906140032 | 75 | 259 | 0.0 | 2.0 | 0.00 | 0.00 | 0.00 | 88 | 1013.0 |
| 20260906134543 | 76 | 0 | 1.0 | 2.0 | 0.00 | 0.00 | 0.00 | 88 | 1013.1 |
| 20260906133058 | 76 | 0 | 0.0 | 1.0 | 0.00 | 0.00 | 0.00 | 88 | 1012.9 |
| 20260906131535 | 76 | 0 | 0.0 | 2.0 | 0.00 | 0.00 | 0.00 | 88 | 1013.2 |
| 20260906130037 | 76 | 0 | 0.0 | 1.0 | 0.00 | 0.00 | 0.00 | 89 | 1013.0 |
| 20260906124533 | 75 | 0 | 0.0 | 1.0 | 0.00 | 0.00 | 0.00 | 89 | 1012.6 |
| 20260906123035 | 75 | 0 | 0.0 | 1.0 | 0.00 | 0.00 | 0.00 | 89 | 1012.2 |
| 20260906121536 | 75 | 167 | 0.0 | 1.0 | 0.00 | 0.00 | 0.00 | 88 | 1012.0 |
| 20260906120033 | 76 | 210 | 0.0 | 1.0 | 0.00 | 0.00 | 0.00 | 87 | 1011.8 |
| 20260906114536 | 76 | 0 | 0.0 | 1.0 | 0.00 | 0.00 | 0.00 | 86 | 1011.9 |
| 20260906113034 | 76 | 0 | 0.0 | 0.0 | 0.00 | 0.00 | 0.00 | 85 | 1012.0 |
| 20260906111539 | 77 | 259 | 0.0 | 1.0 | 0.00 | 0.00 | 0.00 | 86 | 1012.1 |
| 20260906110034 | 77 | 0 | 0.0 | 1.0 | 0.00 | 0.00 | 0.00 | 84 | 1012.1 |
| 20260906104539 | 77 | 0 | 0.0 | 0.0 | 0.00 | 0.00 | 0.00 | 83 | 1012.2 |
| 20260906103037 | 78 | 0 | 0.0 | 1.0 | 0.00 | 0.00 | 0.00 | 83 | 1012.2 |
| 20260906101535 | 79 | 0 | 0.0 | 1.0 | 0.00 | 0.00 | 0.00 | 81 | 1012.2 |
| 20260906100038 | 79 | 262 | 0.0 | 3.0 | 0.00 | 0.00 | 0.00 | 79 | 1012.2 |
| 20260906094536 | 79 | 281 | 2.0 | 5.0 | 0.00 | 0.00 | 0.00 | 79 | 1012.3 |
| 20260906093034 | 80 | 159 | 1.0 | 4.0 | 0.00 | 0.00 | 0.00 | 78 | 1012.2 |
| 20260906091536 | 79 | 210 | 1.0 | 3.0 | 0.00 | 0.00 | 0.00 | 79 | 1012.0 |
| 20260906090039 | 80 | 259 | 1.0 | 4.0 | 0.00 | 0.00 | 0.00 | 78 | 1012.0 |
| 20260906084536 | 80 | 179 | 3.0 | 5.0 | 0.00 | 0.00 | 0.00 | 78 | 1012.0 |
| 20260906083037 | 80 | 181 | 1.0 | 4.0 | 0.00 | 0.00 | 0.00 | 76 | 1012.3 |
| 20260906081532 | 80 | 135 | 1.0 | 4.0 | 0.00 | 0.00 | 0.00 | 75 | 1012.3 |
| 20260906080039 | 80 | 133 | 2.0 | 4.0 | 0.00 | 0.00 | 0.00 | 75 | 1012.3 |
| 20260906074559 | 80 | 163 | 1.0 | 6.0 | 0.00 | 0.00 | 0.00 | 75 | 1012.0 |
| 20260906063034 | 80 | 110 | 1.0 | 4.0 | 0.00 | 0.00 | 0.00 | 74 | 1011.7 |
| 20260906061535 | 80 | 0 | 1.0 | 3.0 | 0.00 | 0.00 | 0.00 | 74 | 1011.6 |
| 20260906053042 | 81 | 232 | 2.0 | 6.0 | 0.00 | 0.00 | 0.00 | 72 | 1011.7 |
| 20260906051534 | 82 | 226 | 2.0 | 5.0 | 0.00 | 0.00 | 0.00 | 71 | 1011.7 |
| 20260906043035 | 83 | 118 | 2.0 | 5.0 | 0.00 | 0.00 | 0.00 | 71 | 1012.1 |
| 20260906041535 | 83 | 333 | 1.0 | 4.0 | 0.00 | 0.00 | 0.00 | 70 | 1012.4 |
| 20260906040039 | 84 | 210 | 2.0 | 5.0 | 0.00 | 0.00 | 0.00 | 69 | 1012.4 |
| 20260906034542 | 84 | 185 | 3.0 | 8.0 | 0.00 | 0.00 | 0.00 | 68 | 1012.6 |
| 20260906033035 | 84 | 170 | 2.0 | 7.0 | 0.00 | 0.00 | 0.00 | 69 | 1012.5 |
| 20260906031536 | 83 | 165 | 2.0 | 5.0 | 0.00 | 0.00 | 0.00 | 70 | 1012.4 |
| 20260906030033 | 83 | 143 | 3.0 | 11.0 | 0.00 | 0.00 | 0.00 | 71 | 1012.6 |
| 20260906024538 | 83 | 120 | 6.0 | 16.0 | 0.00 | 0.00 | 0.00 | 70 | 1012.4 |
| 20260906023034 | 84 | 114 | 8.0 | 18.0 | 0.00 | 0.00 | 0.00 | 70 | 1012.0 |
| 20260906021533 | 84 | 92 | 6.0 | 19.0 | 0.00 | 0.00 | 0.00 | 70 | 1011.6 |
| 20260906020043 | 84 | 63 | 7.0 | 18.0 | 0.00 | 0.00 | 0.00 | 69 | 1011.6 |
| 20260906014545 | 84 | 128 | 7.0 | 15.0 | 0.00 | 0.00 | 0.00 | 69 | 1011.4 |
| 20260906013035 | 84 | 89 | 11.0 | 20.0 | 0.00 | 0.00 | 0.00 | 68 | 1011.4 |
| 20260906011535 | 85 | 74 | 10.0 | 22.0 | 0.00 | 0.00 | 0.00 | 65 | 1011.5 |
| 20260906010036 | 85 | 96 | 8.0 | 20.0 | 0.00 | 0.00 | 0.00 | 62 | 1011.5 |
| 20260906004533 | 86 | 101 | 6.0 | 15.0 | 0.00 | 0.00 | 0.00 | 60 | 1011.4 |
| 20260906001535 | 89 | 103 | 8.0 | 15.0 | 0.00 | 0.00 | 0.00 | 54 | 1011.5 |
| 20260906000037 | 90 | 85 | 4.0 | 9.0 | 0.00 | 0.00 | 0.00 | 49 | 1011.2 |
| 20260905234533 | 91 | 80 | 2.0 | 10.0 | 0.00 | 0.00 | 0.00 | 50 | 1010.7 |
| 20260905233039 | 91 | 0 | 0.0 | 0.0 | 0.00 | 0.00 | 0.00 | 50 | 1010.8 |
| 20260905231541 | 92 | 0 | 0.0 | 0.0 | 0.00 | 0.00 | 0.00 | 50 | 1010.8 |
| 20260905230041 | 92 | 349 | 0.0 | 2.0 | 0.00 | 0.00 | 0.00 | 49 | 1010.9 |
| 20260905224535 | 93 | 0 | 0.0 | 5.0 | 0.00 | 0.00 | 0.00 | 47 | 1010.8 |
| 20260905223035 | 96 | 70 | 1.0 | 6.0 | 0.00 | 0.00 | 0.00 | 44 | 1010.7 |
| 20260905221536 | 97 | 278 | 2.0 | 7.0 | 0.00 | 0.00 | 0.00 | 40 | 1010.1 |
| 20260905220033 | 98 | 291 | 3.0 | 8.0 | 0.00 | 0.00 | 0.00 | 38 | 1009.8 |
| 20260905213034 | 100 | 288 | 2.0 | 6.0 | 0.00 | 0.00 | 0.00 | 36 | 1009.3 |
| 20260905211538 | 101 | 281 | 5.0 | 9.0 | 0.00 | 0.00 | 0.00 | 33 | 1009.3 |
| 20260905204537 | 101 | 239 | 4.0 | 9.0 | 0.00 | 0.00 | 0.00 | 34 | 1009.5 |
| 20260905203034 | 100 | 216 | 5.0 | 9.0 | 0.00 | 0.00 | 0.00 | 35 | 1009.5 |